Latest Weather Observations for Kadina

IDS60801

Issued at 3:01 pm CST Thursday 1 September 2016 (issued every 30 minutes, with the page automatically refreshed every 10 minutes)

About weather observations | Map of weather stations | Latest weather observations for SA | Other Formats
Station Details ID: 022050 Name: KADINA AWS Lat: -33.97 Lon: 137.66 Height: 41.14 m
Data from the previous 72 hours. | See also: Recent months at Kadina
Date/Time
CST
Temp
°C
App
Temp
°C
Dew
Point
°C
Rel
Hum
%
Delta-T
°C
Wind Press
QNH
hPa
Press
MSL
hPa
Rain since
9am
mm
Dir  Spd
km/h
Gust
km/h
Spd
kts
Gust
kts
01/03:00pm 18.9 16.6 7.4 47 5.8 WNW 9 17 5 9 1012.6 1012.4 0.0
01/02:30pm 18.4 15.0 7.8 50 5.4 WNW 15 19 8 10 1013.1 - 0.0
01/02:00pm 19.1 15.6 8.7 51 5.4 WNW 17 26 9 14 1013.3 - 0.0
01/01:30pm 17.8 13.5 10.7 63 3.8 NNW 24 33 13 18 1013.8 - 0.0
01/01:00pm 18.6 15.5 10.4 59 4.4 NNW 17 24 9 13 1013.8 - 0.0
01/12:30pm 18.7 16.2 9.8 56 4.7 N 13 20 7 11 1014.3 - 0.0
01/12:00pm 18.6 17.1 11.9 65 3.7 NNE 11 20 6 11 1014.9 1014.7 0.0
01/11:30am 17.1 14.2 10.9 67 3.3 NNE 17 22 9 12 1015.5 - 0.0
01/11:00am 17.6 15.5 12.5 72 2.8 NE 15 20 8 11 1016.0 - 0.0
01/10:30am 17.2 15.0 12.1 72 2.8 NNE 15 20 8 11 1016.3 - 0.0
01/10:00am 16.5 13.7 11.2 71 2.9 NE 17 20 9 11 1016.6 - 0.0
01/09:30am 15.3 13.0 11.9 80 1.8 ENE 15 19 8 10 1016.7 - 0.0
01/09:00am 13.6 11.4 12.0 90 0.9 E 15 19 8 10 1016.8 1016.7 0.2
01/08:30am 11.2 9.4 10.9 98 0.2 E 11 13 6 7 1017.1 - 0.2
01/08:00am 8.1 5.5 7.7 97 0.2 ESE 11 13 6 7 1017.0 - 0.2
01/07:30am 7.1 3.5 6.7 97 0.2 ESE 15 17 8 9 1016.8 - 0.2
01/07:00am 6.9 2.9 6.5 97 0.2 ESE 17 17 9 9 1016.7 - 0.2
01/06:30am 6.7 3.0 6.3 97 0.2 SE 15 17 8 9 1016.6 - 0.2
01/06:00am 6.0 2.5 5.6 97 0.2 SE 13 13 7 7 1016.5 1016.4 0.2
01/05:30am 6.4 3.8 6.0 97 0.2 SE 9 11 5 6 1016.6 - 0.2
01/05:00am 6.1 2.6 5.5 96 0.3 E 13 15 7 8 1016.5 - 0.2
01/04:30am 6.5 3.1 5.9 96 0.3 ESE 13 15 7 8 1016.6 - 0.2
01/04:00am 7.0 3.7 6.4 96 0.3 ESE 13 15 7 8 1017.0 - 0.2
01/03:30am 7.3 3.7 6.7 96 0.3 ESE 15 15 8 8 1017.2 - 0.2
01/03:00am 7.8 5.4 7.1 95 0.3 E 9 11 5 6 1017.5 1017.4 0.2
01/02:30am 9.2 7.1 8.4 95 0.4 ESE 9 11 5 6 1017.6 - 0.2
01/02:00am 9.8 7.1 9.0 95 0.4 ESE 13 15 7 8 1017.8 - 0.2
01/01:30am 10.9 8.5 10.0 94 0.5 ESE 13 15 7 8 1018.3 - 0.2
01/01:00am 11.0 9.4 10.1 94 0.5 SSE 9 11 5 6 1018.8 - 0.2
01/12:30am 11.4 9.4 10.1 92 0.7 SE 11 13 6 7 1018.6 - 0.2
01/12:00am 11.7 9.8 10.6 93 0.6 S 11 15 6 8 1018.8 1018.7 0.2
 
Date/Time
CST
Temp
°C
App
Temp
°C
Dew
Point
°C
Rel
Hum
%
Delta-T
°C
Wind Press
QNH
hPa
Press
MSL
hPa
Rain since
9am
mm
Dir  Spd
km/h
Gust
km/h
Spd
kts
Gust
kts
31/11:30pm 11.9 10.0 10.6 92 0.7 S 11 15 6 8 1018.9 - 0.2
31/11:00pm 12.1 10.3 10.8 92 0.7 SSE 11 13 6 7 1018.9 - 0.2
31/10:30pm 12.1 10.3 10.7 91 0.7 S 11 13 6 7 1019.2 - 0.2
31/10:00pm 12.3 11.3 11.0 92 0.7 S 7 9 4 5 1019.2 - 0.2
31/09:30pm 12.6 12.9 11.0 90 0.8 CALM 0 0 0 0 1019.3 - 0.2
31/09:00pm 12.6 12.2 11.2 91 0.7 ESE 4 6 2 3 1019.3 1019.3 0.2
31/08:30pm 12.8 12.4 11.0 89 0.9 SSE 4 7 2 4 1019.1 - 0.2
31/08:00pm 13.3 13.7 11.2 87 1.1 CALM 0 0 0 0 1019.0 - 0.2
31/07:30pm 13.3 13.6 10.8 85 1.3 CALM 0 0 0 0 1018.8 - 0.2
31/07:00pm 13.5 13.5 11.2 86 1.2 SSE 2 7 1 4 1018.6 - 0.2
31/06:30pm 13.6 12.7 10.6 82 1.6 SE 6 6 3 3 1018.4 - 0.2
31/06:00pm 14.1 14.5 11.3 83 1.5 CALM 0 0 0 0 1018.2 1018.2 0.2
31/05:30pm 14.3 13.3 10.3 77 2.1 SW 6 9 3 5 1018.1 - 0.2
31/05:00pm 14.9 13.2 9.7 71 2.7 WSW 9 11 5 6 1018.0 - 0.2
31/04:30pm 15.1 12.6 9.7 70 2.8 SW 13 15 7 8 1017.7 - 0.2
31/04:00pm 16.2 14.0 9.4 64 3.5 SW 11 15 6 8 1017.4 - 0.2
31/03:30pm 16.7 14.6 11.0 69 3.1 W 13 17 7 9 1017.5 - 0.2
31/03:00pm 16.5 13.4 8.7 60 4.0 W 15 20 8 11 1017.7 1017.7 0.2
31/02:30pm 16.5 13.9 9.2 62 3.8 W 13 20 7 11 1018.0 - 0.2
31/02:00pm 16.6 13.9 10.2 66 3.4 SW 15 20 8 11 1018.1 - 0.2
31/01:30pm 16.1 13.8 10.4 69 3.0 W 13 20 7 11 1018.3 - 0.2
31/01:00pm 15.5 12.4 11.5 77 2.2 W 19 24 10 13 1018.7 - 0.0
31/12:30pm 15.5 11.7 11.1 75 2.4 WNW 22 30 12 16 1019.0 - 0.0
31/12:00pm 16.1 12.9 13.0 82 1.7 WNW 22 30 12 16 1019.1 1019.1 0.0
31/11:30am 15.2 11.2 11.8 80 1.8 WNW 24 30 13 16 1019.3 - 0.0
31/11:00am 14.6 11.1 12.1 85 1.4 WNW 22 30 12 16 1019.4 - 0.0
31/10:30am 14.4 10.8 11.9 85 1.3 WNW 22 28 12 15 1019.4 - 0.0
31/10:00am 14.2 11.0 11.9 86 1.2 NW 20 26 11 14 1019.3 - 0.0
31/09:30am 13.6 10.3 11.7 88 1.0 NW 20 28 11 15 1019.2 - 0.0
31/09:00am 13.4 9.7 11.5 88 1.0 WNW 22 26 12 14 1019.2 1019.2 1.6
31/08:30am 13.1 9.8 11.7 91 0.7 WNW 20 24 11 13 1019.0 - 1.6
31/08:00am 12.7 9.6 11.6 93 0.6 WNW 19 22 10 12 1018.7 - 1.6
31/07:30am 12.1 9.7 11.5 96 0.3 WNW 15 20 8 11 1018.3 - 1.6
31/07:00am 11.4 8.8 10.6 95 0.4 WNW 15 17 8 9 1018.0 - 1.6
31/06:30am 11.8 8.5 11.0 95 0.4 W 19 24 10 13 1017.8 - 1.6
31/06:00am 11.7 9.2 10.9 95 0.4 WNW 15 20 8 11 1017.4 1017.4 1.6
31/05:30am 11.9 9.5 11.3 96 0.3 WNW 15 20 8 11 1016.9 - 1.6
31/05:00am 10.7 8.3 9.9 95 0.4 WNW 13 17 7 9 1016.6 - 1.6
31/04:30am 11.3 8.6 10.4 94 0.5 W 15 19 8 10 1016.4 - 1.6
31/04:00am 11.7 8.4 10.8 94 0.5 W 19 22 10 12 1016.1 - 1.6
31/03:30am 11.8 8.5 10.9 94 0.5 W 19 24 10 13 1016.0 - 1.6
31/03:00am 11.9 8.4 10.8 93 0.6 WNW 20 26 11 14 1016.0 1016.0 1.6
31/02:30am 11.9 7.9 10.6 92 0.7 WNW 22 28 12 15 1015.8 - 1.6
31/02:00am 12.1 7.9 11.0 93 0.6 W 24 30 13 16 1015.8 - 1.6
31/01:30am 12.1 8.6 11.0 93 0.6 WNW 20 26 11 14 1015.8 - 1.6
31/01:00am 12.0 8.6 10.7 92 0.7 WNW 19 22 10 12 1015.8 - 1.6
31/12:30am 12.2 8.7 10.9 92 0.7 WNW 20 26 11 14 1015.5 - 1.6
31/12:00am 12.3 8.8 11.0 92 0.7 WNW 20 28 11 15 1015.4 1015.4 1.6
 
Date/Time
CST
Temp
°C
App
Temp
°C
Dew
Point
°C
Rel
Hum
%
Delta-T
°C
Wind Press
QNH
hPa
Press
MSL
hPa
Rain since
9am
mm
Dir  Spd
km/h
Gust
km/h
Spd
kts
Gust
kts
30/11:30pm 12.5 8.7 11.2 92 0.7 W 22 28 12 15 1015.2 - 1.4
30/11:00pm 12.5 9.1 11.4 93 0.6 W 20 24 11 13 1015.0 - 1.4
30/10:30pm 12.2 8.8 11.1 93 0.6 W 20 22 11 12 1015.1 - 1.4
30/10:00pm 12.5 9.3 11.2 92 0.7 W 19 22 10 12 1015.1 - 1.4
30/09:30pm 12.9 9.5 11.3 90 0.8 W 20 24 11 13 1014.8 - 1.4
30/09:00pm 13.1 10.0 11.7 91 0.7 W 19 24 10 13 1014.5 1014.4 1.4
30/08:30pm 13.4 11.0 11.5 88 1.0 W 15 19 8 10 1014.2 - 1.4
30/08:00pm 14.3 13.2 11.8 85 1.3 WSW 9 13 5 7 1013.8 - 1.4
30/07:30pm 14.8 12.9 11.9 83 1.6 SW 13 17 7 9 1013.5 - 1.4
30/07:00pm 15.0 12.8 12.0 82 1.6 WSW 15 19 8 10 1013.0 - 1.4
30/06:30pm 14.6 12.7 11.9 84 1.5 WNW 13 17 7 9 1012.5 - 1.4
30/06:00pm 15.0 13.6 12.1 83 1.6 NW 11 15 6 8 1011.9 1011.8 1.4
30/05:30pm 15.3 13.7 12.8 85 1.4 N 13 17 7 9 1011.2 - 1.4
30/05:00pm 15.8 14.5 13.6 87 1.2 N 13 15 7 8 1010.5 - 1.4
30/04:30pm 16.7 14.3 13.8 83 1.6 N 19 26 10 14 1010.2 - 1.4
30/04:00pm 16.4 14.4 12.8 79 2.0 N 15 20 8 11 1010.2 - 1.4
30/03:30pm 16.5 14.2 14.2 86 1.3 NNE 19 22 10 12 1010.1 - 1.4
30/03:00pm 15.8 12.8 13.6 87 1.2 NNW 22 37 12 20 1010.4 1010.3 1.4
30/02:30pm 17.0 13.9 13.5 80 2.0 N 22 30 12 16 1010.1 - 0.0
30/02:00pm 18.7 14.3 14.0 74 2.7 N 30 39 16 21 1010.2 - 0.0
30/01:30pm 18.8 14.5 14.3 75 2.6 N 30 41 16 22 1010.6 - 0.0
30/01:00pm 18.6 14.6 15.1 80 2.0 N 30 37 16 20 1011.1 - 0.0
30/12:30pm 17.7 13.9 14.6 82 1.8 N 28 35 15 19 1011.7 - 0.0
30/12:00pm 17.8 13.6 14.7 82 1.8 N 30 35 16 19 1011.9 1011.8 0.0
30/11:30am 17.4 13.7 15.0 86 1.4 N 28 39 15 21 1011.9 - 0.0
30/11:00am 17.0 13.2 14.6 86 1.4 N 28 33 15 18 1012.1 - 0.0
30/10:30am 15.8 11.7 13.8 88 1.1 N 28 37 15 20 1012.2 - 0.0
30/10:00am 16.4 12.6 14.6 89 1.0 N 28 33 15 18 1012.2 - 0.0
30/09:30am 15.6 11.6 14.1 91 0.8 N 28 37 15 20 1012.0 - 0.0
30/09:00am 15.3 11.3 14.2 93 0.6 N 28 37 15 20 1012.2 1012.1 7.4
30/08:30am 14.7 11.4 14.1 96 0.3 N 24 30 13 16 1012.4 - 7.4
30/08:00am 14.0 10.9 13.5 97 0.3 N 22 28 12 15 1012.5 - 7.4
30/07:30am 13.9 11.4 13.4 97 0.3 N 19 24 10 13 1012.1 - 7.4
30/07:00am 13.8 11.2 13.3 97 0.3 N 19 24 10 13 1011.9 - 7.4
30/06:30am 13.8 11.2 13.3 97 0.3 N 19 24 10 13 1011.6 - 7.2
30/06:00am 13.8 11.2 13.3 97 0.3 N 19 24 10 13 1011.8 1011.7 6.8
30/05:30am 13.8 11.6 13.3 97 0.3 N 17 22 9 12 1011.7 - 6.6
30/05:00am 13.7 11.1 13.2 97 0.3 N 19 26 10 14 1011.4 - 6.0
30/04:30am 13.6 11.3 13.1 97 0.3 N 17 20 9 11 1011.2 - 5.6
30/04:00am 13.5 11.9 12.9 96 0.3 NNW 13 19 7 10 1011.3 - 5.4
30/03:30am 13.5 10.2 12.9 96 0.3 N 22 28 12 15 1011.7 - 4.0
30/03:00am 13.5 10.2 12.7 95 0.4 N 22 30 12 16 1012.0 1011.9 2.0
30/02:30am 13.5 10.1 12.6 94 0.5 N 22 28 12 15 1012.1 - 0.6
30/02:00am 13.6 10.1 12.3 92 0.7 N 22 28 12 15 1012.3 - 0.0
30/01:30am 13.9 8.8 11.9 88 1.1 N 30 37 16 20 1012.6 - 0.0
30/01:00am 14.1 8.5 11.6 85 1.3 NNW 32 43 17 23 1012.6 - 0.0
30/12:30am 14.0 9.5 11.5 85 1.3 N 26 39 14 21 1012.5 - 0.0
30/12:00am 14.2 8.0 11.5 84 1.4 N 35 44 19 24 1012.4 1012.3 0.0
 
Date/Time
CST
Temp
°C
App
Temp
°C
Dew
Point
°C
Rel
Hum
%
Delta-T
°C
Wind Press
QNH
hPa
Press
MSL
hPa
Rain since
9am
mm
Dir  Spd
km/h
Gust
km/h
Spd
kts
Gust
kts
29/11:30pm 13.9 8.8 11.8 87 1.1 NNW 30 39 16 21 1012.7 - 0.0
29/11:00pm 14.2 7.6 11.5 84 1.4 NNW 37 48 20 26 1012.5 - 0.0
29/10:30pm 14.2 8.1 11.7 85 1.3 N 35 46 19 25 1012.2 - 0.0
29/10:11pm 14.2 8.1 11.7 85 1.3 N 35 54 19 29 1012.1 - 0.0
29/10:00pm 14.2 8.5 11.7 85 1.3 NNW 33 43 18 23 1012.6 - 0.0
29/09:30pm 14.1 9.0 12.0 87 1.1 N 30 41 16 22 1012.0 - 0.0
29/09:00pm 14.6 8.2 11.9 84 1.5 N 37 56 20 30 1012.0 1011.9 0.0
29/08:30pm 14.9 10.1 11.7 81 1.7 NNW 28 48 15 26 1011.6 - 0.0
29/08:13pm 15.4 10.6 11.6 78 2.1 NNW 28 56 15 30 1011.3 - 0.0
29/08:10pm 15.6 10.0 11.4 76 2.3 NNW 32 61 17 33 1011.3 - 0.0
29/08:03pm 15.6 7.9 11.4 76 2.3 NNE 43 61 23 33 1010.0 - 0.0
29/08:00pm 15.3 8.4 11.5 78 2.0 NNE 39 54 21 29 1009.7 - 0.0
29/07:30pm 15.4 8.4 11.4 77 2.2 N 39 57 21 31 1011.0 - 0.0
29/07:19pm 15.9 8.5 11.1 73 2.6 N 41 59 22 32 1011.1 - 0.0
29/07:10pm 16.3 8.6 11.5 73 2.6 N 43 54 23 29 1011.7 - 0.0
29/07:00pm 15.7 12.7 10.7 72 2.7 N 17 20 9 11 1011.7 - 0.0
29/06:30pm 15.8 12.8 10.6 71 2.8 NNE 17 24 9 13 1011.4 - 0.0
29/06:00pm 16.1 11.8 10.8 71 2.8 NE 24 32 13 17 1010.8 1010.7 0.0
29/05:30pm 16.5 12.7 11.0 70 3.0 NNE 22 28 12 15 1010.9 - 0.0
29/05:00pm 17.0 13.2 11.3 69 3.1 NNE 22 28 12 15 1010.8 - 0.0
29/04:30pm 17.4 12.9 11.4 68 3.3 NNE 26 35 14 19 1010.2 - 0.0
29/04:00pm 17.7 13.7 11.7 68 3.3 NNE 24 32 13 17 1010.6 - 0.0
29/03:30pm 18.4 12.9 10.5 60 4.2 N 30 37 16 20 1010.3 - 0.0

Other Formats:

Comma delimited format used in spreadsheet applications
http://www.bom.gov.au/fwo/IDS60801/IDS60801.94685.axf

JavaScript Object Notation format (JSON) in row-major order
http://www.bom.gov.au/fwo/IDS60801/IDS60801.94685.json